createdAt,value
2022-11-28T00:01:24.262Z,83.51
2022-11-28T00:03:50.935Z,84.21
2022-11-28T00:06:18.184Z,84.23
2022-11-28T00:08:45.708Z,83.68
2022-11-28T00:11:15.141Z,84.14
2022-11-28T00:13:42.431Z,84.41
2022-11-28T00:16:13.040Z,84.33
2022-11-28T00:18:39.686Z,83.49
2022-11-28T00:21:09.519Z,83.07
2022-11-28T00:23:36.443Z,82.52
2022-11-28T00:26:09.103Z,83.71
2022-11-28T00:28:35.861Z,83.50
2022-11-28T00:31:02.377Z,83.08
2022-11-28T00:33:30.384Z,83.13
2022-11-28T00:36:01.843Z,83.03
2022-11-28T00:38:29.192Z,83.68
2022-11-28T00:41:03.540Z,82.48
2022-11-28T00:43:30.252Z,82.90
2022-11-28T00:45:57.302Z,83.55
2022-11-28T00:48:24.777Z,83.13
2022-11-28T00:50:52.098Z,83.13
2022-11-28T00:53:19.172Z,82.78
2022-11-28T00:55:45.751Z,82.82
2022-11-28T00:58:12.362Z,82.67
2022-11-28T01:00:39.427Z,83.41
2022-11-28T01:03:06.433Z,82.75
2022-11-28T01:05:33.225Z,82.42
2022-11-28T01:07:59.837Z,82.54
2022-11-28T01:10:27.222Z,82.89
2022-11-28T01:12:53.921Z,82.76
2022-11-28T01:15:20.500Z,82.43
2022-11-28T01:17:47.126Z,82.30
2022-11-28T01:20:14.127Z,81.40
2022-11-28T01:22:40.693Z,82.19
2022-11-28T01:25:07.513Z,81.55
2022-11-28T01:27:34.053Z,81.50
2022-11-28T01:30:00.609Z,82.31
2022-11-28T01:32:27.224Z,82.33
2022-11-28T01:34:53.788Z,82.52
2022-11-28T01:37:20.396Z,81.78
2022-11-28T01:39:47.075Z,81.83
2022-11-28T01:42:18.061Z,81.82
2022-11-28T01:44:47.752Z,82.59
2022-11-28T01:47:17.992Z,82.39
2022-11-28T01:49:47.270Z,81.41
2022-11-28T01:52:17.462Z,81.20
2022-11-28T01:54:48.344Z,81.52
2022-11-28T01:57:24.188Z,81.31
2022-11-28T02:00:13.818Z,82.06
2022-11-28T02:02:45.695Z,81.64
2022-11-28T02:05:13.291Z,81.08
2022-11-28T02:07:40.364Z,81.71
2022-11-28T02:10:10.685Z,82.65
2022-11-28T02:12:43.406Z,82.89
2022-11-28T02:15:42.084Z,81.72
2022-11-28T02:18:21.127Z,82.98
2022-11-28T02:21:18.360Z,82.84
2022-11-28T02:24:03.210Z,82.53
2022-11-28T02:26:51.523Z,81.83
2022-11-28T02:29:26.463Z,82.06
2022-11-28T02:32:24.254Z,82.07
2022-11-28T02:34:51.009Z,81.79
2022-11-28T02:37:25.604Z,82.20
2022-11-28T02:40:07.700Z,82.65
2022-11-28T02:42:47.389Z,82.61
2022-11-28T02:45:24.130Z,81.90
2022-11-28T02:47:59.207Z,81.72
2022-11-28T02:50:33.039Z,81.39
2022-11-28T02:53:06.301Z,82.79
2022-11-28T02:55:33.413Z,82.06
2022-11-28T02:58:00.764Z,82.52
2022-11-28T03:00:30.082Z,81.53
2022-11-28T03:03:21.342Z,82.51
2022-11-28T03:06:27.433Z,81.48
2022-11-28T03:09:06.043Z,81.61
2022-11-28T03:11:58.540Z,81.34
2022-11-28T03:14:46.802Z,81.58
2022-11-28T03:17:57.060Z,81.72
2022-11-28T03:20:23.594Z,82.27
2022-11-28T03:23:11.794Z,82.83
2022-11-28T03:26:09.664Z,82.21
2022-11-28T03:28:54.230Z,81.63
2022-11-28T03:31:58.544Z,81.49
2022-11-28T03:34:31.427Z,82.60
2022-11-28T03:37:04.375Z,82.00
2022-11-28T03:39:37.068Z,81.78
2022-11-28T03:42:10.694Z,83.10
2022-11-28T03:44:48.033Z,82.67
2022-11-28T03:47:15.004Z,82.13
2022-11-28T03:49:50.870Z,82.71
2022-11-28T03:52:28.100Z,81.90
2022-11-28T03:55:23.675Z,82.08
2022-11-28T03:58:13.550Z,81.97
2022-11-28T04:00:56.635Z,82.58
2022-11-28T04:03:51.838Z,83.02
2022-11-28T04:06:25.175Z,81.90
2022-11-28T04:09:14.687Z,82.01
2022-11-28T04:11:56.473Z,82.23
2022-11-28T04:14:49.085Z,82.43
2022-11-28T04:17:28.917Z,82.89
2022-11-28T04:20:05.681Z,82.73
2022-11-28T04:22:43.597Z,83.74
2022-11-28T04:25:15.881Z,83.91
2022-11-28T04:27:48.582Z,83.30
2022-11-28T04:30:15.994Z,82.87
2022-11-28T04:32:48.061Z,83.52
2022-11-28T04:35:23.596Z,83.50
2022-11-28T04:37:52.375Z,82.99
2022-11-28T04:40:23.384Z,84.20
2022-11-28T04:42:55.872Z,83.54
2022-11-28T04:45:37.181Z,84.63
2022-11-28T04:48:04.634Z,83.92
2022-11-28T04:50:43.614Z,84.19
2022-11-28T04:53:19.757Z,83.96
2022-11-28T04:55:58.453Z,84.56
2022-11-28T04:58:33.961Z,84.09
2022-11-28T05:01:05.070Z,83.89
2022-11-28T05:03:32.038Z,83.09
2022-11-28T05:05:58.624Z,83.81
2022-11-28T05:08:25.423Z,83.15
2022-11-28T05:10:52.077Z,82.94
2022-11-28T05:13:18.613Z,83.78
2022-11-28T05:15:45.160Z,83.67
2022-11-28T05:18:11.801Z,83.27
2022-11-28T05:20:39.490Z,82.86
2022-11-28T05:23:06.561Z,84.02
2022-11-28T05:25:33.311Z,83.92
2022-11-28T05:27:59.956Z,84.49
2022-11-28T05:30:26.489Z,83.59
2022-11-28T05:32:53.031Z,84.23
2022-11-28T05:35:19.582Z,83.84
2022-11-28T05:37:46.213Z,84.02
2022-11-28T05:40:12.997Z,83.38
2022-11-28T05:42:39.668Z,83.32
2022-11-28T05:45:06.687Z,83.48
2022-11-28T05:47:33.814Z,83.41
2022-11-28T05:50:00.449Z,83.67
2022-11-28T05:52:29.629Z,83.96
2022-11-28T05:54:56.201Z,83.40
2022-11-28T05:57:22.764Z,83.92
2022-11-28T05:59:49.394Z,83.39
2022-11-28T06:02:15.980Z,83.74
2022-11-28T06:04:42.853Z,83.29
2022-11-28T06:07:09.426Z,83.35
2022-11-28T06:09:36.110Z,83.03
2022-11-28T06:12:03.144Z,83.49
2022-11-28T06:14:29.892Z,82.16
2022-11-28T06:16:56.858Z,83.07
2022-11-28T06:19:23.561Z,82.45
2022-11-28T06:21:51.010Z,83.52
2022-11-28T06:24:17.881Z,82.67
2022-11-28T06:26:44.658Z,82.30
2022-11-28T06:29:11.482Z,83.09
2022-11-28T06:31:38.128Z,82.41
2022-11-28T06:34:04.808Z,82.57
2022-11-28T06:36:31.399Z,83.51
2022-11-28T06:38:58.002Z,82.50
2022-11-28T06:41:24.577Z,82.57
2022-11-28T06:43:51.435Z,83.75
2022-11-28T06:46:20.734Z,83.30
2022-11-28T06:48:49.493Z,82.52
2022-11-28T06:51:17.324Z,83.33
2022-11-28T06:53:44.650Z,82.46
2022-11-28T06:56:17.542Z,82.75
2022-11-28T06:58:45.285Z,83.40
2022-11-28T07:01:18.100Z,82.77
2022-11-28T07:03:45.423Z,82.79
2022-11-28T07:06:13.417Z,82.28
2022-11-28T07:08:40.723Z,83.11
2022-11-28T07:11:19.360Z,82.86
2022-11-28T07:13:47.156Z,82.43
2022-11-28T07:16:17.061Z,81.90
2022-11-28T07:18:44.750Z,82.28
2022-11-28T07:21:12.414Z,82.26
2022-11-28T07:23:38.973Z,82.34
2022-11-28T07:26:06.355Z,83.21
2022-11-28T07:28:34.494Z,83.51
2022-11-28T07:31:13.514Z,82.32
2022-11-28T07:33:42.871Z,82.75
2022-11-28T07:36:14.170Z,83.22
2022-11-28T07:38:40.735Z,83.13
2022-11-28T07:41:10.568Z,83.09
2022-11-28T07:43:38.140Z,82.33
2022-11-28T07:46:07.267Z,82.31
2022-11-28T07:48:35.097Z,81.43
2022-11-28T07:51:07.573Z,81.16
2022-11-28T07:53:39.771Z,81.06
2022-11-28T07:56:11.051Z,81.55
2022-11-28T07:58:38.975Z,82.29
2022-11-28T08:01:10.665Z,81.36
2022-11-28T08:03:37.255Z,82.10
2022-11-28T08:06:05.748Z,81.89
2022-11-28T08:08:33.146Z,82.30
2022-11-28T08:11:01.817Z,81.49
2022-11-28T08:13:28.770Z,81.91
2022-11-28T08:15:55.812Z,81.34
2022-11-28T08:18:22.766Z,81.42
2022-11-28T08:20:50.417Z,81.99
2022-11-28T08:23:16.970Z,82.44
2022-11-28T08:25:43.496Z,82.45
2022-11-28T08:28:10.023Z,81.53
2022-11-28T08:30:36.630Z,82.03
2022-11-28T08:33:03.308Z,81.98
2022-11-28T08:35:30.043Z,81.38
2022-11-28T08:38:01.447Z,81.81
2022-11-28T08:40:28.757Z,81.84
2022-11-28T08:42:55.753Z,81.56
2022-11-28T08:45:22.497Z,81.52
2022-11-28T08:47:49.079Z,81.39
2022-11-28T08:50:15.819Z,81.65
2022-11-28T08:52:42.337Z,81.98
2022-11-28T08:55:09.403Z,81.29
2022-11-28T08:57:35.884Z,81.95
2022-11-28T09:00:03.084Z,81.43
2022-11-28T09:02:29.587Z,81.65
2022-11-28T09:04:56.126Z,82.36
2022-11-28T09:07:22.714Z,81.61
2022-11-28T09:09:49.385Z,81.63
2022-11-28T09:12:16.752Z,81.58
2022-11-28T09:14:43.288Z,81.97
2022-11-28T09:17:10.128Z,81.10
2022-11-28T09:19:36.728Z,81.24
2022-11-28T09:22:03.332Z,80.95
2022-11-28T09:24:29.878Z,81.13
2022-11-28T09:26:56.798Z,80.54
2022-11-28T09:29:23.420Z,80.69
2022-11-28T09:31:50.021Z,80.94
2022-11-28T09:34:16.735Z,80.95
2022-11-28T09:36:43.250Z,81.57
2022-11-28T09:39:09.784Z,80.99
2022-11-28T09:41:49.799Z,80.75
2022-11-28T09:44:42.102Z,80.21
2022-11-28T09:47:36.888Z,80.62
2022-11-28T09:50:10.579Z,80.04
2022-11-28T09:52:49.190Z,80.76
2022-11-28T09:55:24.933Z,80.66
2022-11-28T09:57:52.501Z,80.48
2022-11-28T10:00:31.629Z,80.91
2022-11-28T10:03:09.312Z,79.72
2022-11-28T10:05:56.962Z,80.47
2022-11-28T10:09:12.326Z,80.34
2022-11-28T10:12:03.075Z,80.75
2022-11-28T10:14:43.567Z,80.29
2022-11-28T10:17:24.982Z,80.13
2022-11-28T10:19:57.299Z,79.73
2022-11-28T10:22:48.533Z,80.20
2022-11-28T10:25:31.527Z,80.27
2022-11-28T10:27:58.082Z,80.37
2022-11-28T10:30:34.180Z,80.20
2022-11-28T10:33:09.564Z,80.40
2022-11-28T10:35:44.361Z,80.00
2022-11-28T10:38:15.567Z,79.99
2022-11-28T10:40:53.286Z,79.61
2022-11-28T10:43:32.010Z,79.92
2022-11-28T10:46:35.687Z,79.49
2022-11-28T10:49:22.943Z,79.88
2022-11-28T10:52:23.126Z,79.54
2022-11-28T10:55:08.553Z,79.33
2022-11-28T10:58:00.881Z,79.31
2022-11-28T11:00:27.407Z,79.00
2022-11-28T11:02:56.049Z,79.34
2022-11-28T11:05:29.614Z,79.12
2022-11-28T11:08:16.720Z,78.45
2022-11-28T11:10:51.908Z,78.48
2022-11-28T11:13:25.169Z,79.03
2022-11-28T11:16:02.778Z,78.67
2022-11-28T11:18:36.525Z,78.43
2022-11-28T11:21:19.818Z,78.20
2022-11-28T11:23:48.177Z,78.56
2022-11-28T11:26:25.383Z,78.01
2022-11-28T11:28:52.564Z,77.91
2022-11-28T11:31:27.379Z,78.24
2022-11-28T11:34:01.806Z,78.59
2022-11-28T11:36:31.721Z,77.81
2022-11-28T11:39:13.354Z,77.66
2022-11-28T11:41:45.367Z,77.74
2022-11-28T11:44:14.718Z,78.58
2022-11-28T11:46:55.449Z,78.10
2022-11-28T11:49:32.588Z,77.86
2022-11-28T11:52:05.251Z,77.72
2022-11-28T11:54:31.857Z,77.47
2022-11-28T11:57:17.948Z,77.21
2022-11-28T11:59:53.549Z,77.31
2022-11-28T12:02:37.988Z,77.34
2022-11-28T12:05:11.525Z,77.36
2022-11-28T12:07:56.554Z,77.56
2022-11-28T12:10:27.252Z,77.31
2022-11-28T12:12:54.010Z,76.18
2022-11-28T12:15:40.230Z,76.94
2022-11-28T12:18:12.855Z,76.76
2022-11-28T12:21:04.590Z,75.81
2022-11-28T12:23:40.198Z,77.05
2022-11-28T12:26:20.794Z,76.06
2022-11-28T12:29:01.635Z,75.79
2022-11-28T12:31:38.326Z,76.40
2022-11-28T12:34:23.226Z,76.75
2022-11-28T12:37:20.940Z,75.25
2022-11-28T12:40:06.222Z,76.27
2022-11-28T12:43:10.058Z,76.42
2022-11-28T12:45:47.173Z,76.05
2022-11-28T12:48:31.659Z,76.39
2022-11-28T12:51:24.891Z,74.79
2022-11-28T12:54:03.736Z,75.92
2022-11-28T12:56:56.095Z,75.09
2022-11-28T12:59:32.670Z,76.61
2022-11-28T13:02:10.165Z,74.99
2022-11-28T13:04:57.615Z,75.88
2022-11-28T13:07:26.927Z,75.43
2022-11-28T13:10:05.475Z,76.56
2022-11-28T13:12:58.201Z,74.97
2022-11-28T13:15:41.074Z,75.92
2022-11-28T13:18:25.751Z,75.21
2022-11-28T13:21:14.164Z,75.93
2022-11-28T13:23:47.020Z,75.84
2022-11-28T13:26:13.657Z,75.20
2022-11-28T13:28:46.328Z,74.82
2022-11-28T13:31:33.828Z,74.10
2022-11-28T13:34:00.911Z,75.83
2022-11-28T13:39:50.835Z,75.44
2022-11-28T13:45:32.838Z,76.19
2022-11-28T13:48:00.700Z,74.42
2022-11-28T13:50:30.355Z,75.85
2022-11-28T13:53:06.036Z,75.03
2022-11-28T13:55:47.192Z,74.58
2022-11-28T13:58:18.653Z,75.73
2022-11-28T14:01:08.726Z,75.25
2022-11-28T14:04:07.659Z,74.42
2022-11-28T14:06:59.125Z,74.38
2022-11-28T14:10:03.843Z,73.65
2022-11-28T14:12:45.325Z,74.83
2022-11-28T14:15:45.788Z,74.37
2022-11-28T14:18:58.330Z,74.70
2022-11-28T14:21:32.736Z,75.39
2022-11-28T14:24:11.150Z,74.81
2022-11-28T14:26:42.791Z,75.01
2022-11-28T14:29:27.520Z,75.30
2022-11-28T14:32:27.823Z,75.81
2022-11-28T14:34:47.360Z,75.19
2022-11-28T14:37:27.071Z,75.08
2022-11-28T14:39:55.576Z,75.91
2022-11-28T14:42:58.403Z,75.17
2022-11-28T14:45:33.456Z,76.34
2022-11-28T14:48:31.997Z,76.30
2022-11-28T14:51:02.149Z,75.96
2022-11-28T14:53:44.468Z,74.76
2022-11-28T14:56:28.042Z,75.77
2022-11-28T14:59:02.253Z,75.50
2022-11-28T15:01:37.874Z,74.95
2022-11-28T15:04:44.295Z,76.20
2022-11-28T15:07:49.922Z,74.95
2022-11-28T15:11:08.685Z,75.24
2022-11-28T15:13:47.481Z,75.55
2022-11-28T15:16:18.646Z,75.56
2022-11-28T15:18:55.777Z,76.39
2022-11-28T15:21:22.952Z,76.03
2022-11-28T15:23:52.611Z,76.29
2022-11-28T15:26:20.868Z,75.85
2022-11-28T15:28:47.491Z,76.42
2022-11-28T15:31:22.874Z,75.38
2022-11-28T15:33:50.896Z,76.27
2022-11-28T15:36:27.440Z,76.36
2022-11-28T15:38:56.073Z,75.28
2022-11-28T15:41:25.319Z,75.18
2022-11-28T15:43:54.082Z,76.77
2022-11-28T15:46:32.575Z,75.20
2022-11-28T15:49:01.510Z,76.47
2022-11-28T15:51:32.626Z,76.49
2022-11-28T15:54:00.716Z,75.97
2022-11-28T15:56:27.312Z,76.86
2022-11-28T15:58:54.093Z,76.04
2022-11-28T16:01:22.443Z,77.37
2022-11-28T16:04:10.442Z,76.78
2022-11-28T16:06:41.263Z,76.46
2022-11-28T16:09:19.986Z,76.11
2022-11-28T16:11:49.494Z,76.46
2022-11-28T16:14:28.867Z,76.42
2022-11-28T16:17:01.351Z,77.00
2022-11-28T16:19:31.936Z,76.71
2022-11-28T16:22:02.066Z,76.15
2022-11-28T16:24:42.299Z,76.95
2022-11-28T16:27:30.175Z,76.84
2022-11-28T16:29:57.085Z,76.86
2022-11-28T16:32:39.983Z,76.41
2022-11-28T16:35:12.471Z,77.07
2022-11-28T16:37:39.368Z,76.64
2022-11-28T16:40:13.891Z,76.95
2022-11-28T16:42:40.722Z,76.95
2022-11-28T16:45:17.326Z,77.13
2022-11-28T16:47:45.592Z,76.31
2022-11-28T16:50:24.214Z,76.53
2022-11-28T16:52:52.767Z,75.59
2022-11-28T16:55:32.265Z,75.47
2022-11-28T16:58:11.449Z,75.76
2022-11-28T17:00:40.557Z,77.52
2022-11-28T17:03:11.665Z,76.98
2022-11-28T17:05:39.702Z,75.69
2022-11-28T17:08:08.200Z,76.44
2022-11-28T17:10:34.768Z,76.26
2022-11-28T17:13:01.387Z,77.04
2022-11-28T17:15:27.968Z,77.94
2022-11-28T17:17:55.752Z,77.06
2022-11-28T17:20:22.333Z,77.12
2022-11-28T17:22:50.999Z,77.76
2022-11-28T17:25:20.164Z,76.59
2022-11-28T17:27:50.615Z,76.82
2022-11-28T17:30:19.456Z,77.38
2022-11-28T17:32:51.857Z,77.87
2022-11-28T17:35:22.062Z,78.80
2022-11-28T17:37:48.786Z,77.49
2022-11-28T17:40:33.849Z,77.90
2022-11-28T17:43:01.392Z,78.05
2022-11-28T17:45:31.554Z,78.53
2022-11-28T17:47:58.618Z,78.51
2022-11-28T17:50:25.294Z,78.85
2022-11-28T17:52:52.258Z,78.72
2022-11-28T17:55:20.667Z,77.90
2022-11-28T17:57:47.575Z,77.37
2022-11-28T18:00:15.139Z,77.91
2022-11-28T18:02:43.256Z,78.24
2022-11-28T18:05:09.868Z,78.04
2022-11-28T18:07:38.339Z,77.66
2022-11-28T18:10:05.620Z,76.92
2022-11-28T18:12:32.447Z,78.75
2022-11-28T18:15:00.854Z,78.17
2022-11-28T18:17:28.242Z,78.47
2022-11-28T18:19:57.667Z,78.06
2022-11-28T18:22:24.911Z,78.80
2022-11-28T18:24:52.298Z,78.68
2022-11-28T18:27:18.815Z,78.51
2022-11-28T18:29:45.892Z,78.07
2022-11-28T18:32:12.841Z,78.11
2022-11-28T18:34:39.708Z,77.16
2022-11-28T18:37:06.358Z,77.48
2022-11-28T18:39:33.237Z,78.15
2022-11-28T18:42:00.112Z,78.72
2022-11-28T18:44:27.984Z,77.96
2022-11-28T18:46:54.694Z,78.79
2022-11-28T18:49:21.406Z,78.19
2022-11-28T18:51:48.480Z,77.51
2022-11-28T18:54:20.528Z,78.43
2022-11-28T18:56:48.350Z,78.76
2022-11-28T18:59:14.928Z,78.25
2022-11-28T19:01:41.589Z,77.60
2022-11-28T19:04:11.479Z,77.77
2022-11-28T19:06:40.217Z,77.46
2022-11-28T19:09:10.844Z,77.91
2022-11-28T19:11:37.903Z,77.67
2022-11-28T19:14:06.626Z,78.05
2022-11-28T19:16:35.923Z,77.58
2022-11-28T19:19:04.462Z,77.82
2022-11-28T19:21:34.304Z,77.19
2022-11-28T19:24:03.094Z,77.28
2022-11-28T19:26:31.438Z,79.08
2022-11-28T19:29:00.924Z,78.19
2022-11-28T19:31:30.183Z,79.41
2022-11-28T19:34:03.093Z,79.29
2022-11-28T19:36:33.489Z,78.99
2022-11-28T19:39:00.854Z,79.91
2022-11-28T19:41:28.284Z,79.22
2022-11-28T19:43:55.854Z,79.10
2022-11-28T19:46:23.401Z,78.80
2022-11-28T19:48:51.675Z,79.16
2022-11-28T19:51:19.815Z,78.98
2022-11-28T19:53:46.908Z,79.22
2022-11-28T19:56:16.801Z,78.93
2022-11-28T19:58:44.661Z,79.94
2022-11-28T20:01:15.431Z,79.46
2022-11-28T20:03:43.164Z,78.57
2022-11-28T20:06:13.377Z,79.06
2022-11-28T20:08:40.949Z,79.67
2022-11-28T20:11:19.443Z,79.46
2022-11-28T20:13:47.012Z,79.36
2022-11-28T20:16:15.635Z,80.13
2022-11-28T20:18:44.525Z,79.93
2022-11-28T20:21:19.866Z,80.52
2022-11-28T20:23:49.372Z,80.11
2022-11-28T20:26:18.532Z,79.87
2022-11-28T20:28:46.016Z,80.65
2022-11-28T20:31:19.446Z,80.32
2022-11-28T20:33:47.600Z,81.08
2022-11-28T20:36:18.483Z,80.73
2022-11-28T20:38:46.504Z,80.61
2022-11-28T20:41:15.256Z,80.46
2022-11-28T20:43:42.493Z,81.27
2022-11-28T20:46:15.047Z,81.20
2022-11-28T20:48:42.197Z,80.79
2022-11-28T20:51:14.619Z,81.05
2022-11-28T20:53:49.009Z,80.35
2022-11-28T20:56:27.013Z,81.36
2022-11-28T20:58:54.579Z,81.06
2022-11-28T21:01:25.739Z,80.22
2022-11-28T21:03:53.973Z,80.25
2022-11-28T21:06:22.224Z,81.38
2022-11-28T21:09:36.681Z,80.61
2022-11-28T21:12:04.239Z,81.12
2022-11-28T21:14:32.523Z,80.80
2022-11-28T21:17:10.711Z,81.18
2022-11-28T21:19:38.439Z,80.34
2022-11-28T21:22:06.470Z,81.20
2022-11-28T21:24:38.036Z,81.47
2022-11-28T21:27:05.165Z,81.92
2022-11-28T21:29:34.720Z,80.75
2022-11-28T21:32:02.457Z,81.18
2022-11-28T21:34:30.000Z,81.79
2022-11-28T21:36:57.132Z,81.74
2022-11-28T21:39:26.757Z,81.06
2022-11-28T21:41:57.028Z,82.16
2022-11-28T21:44:24.095Z,81.98
2022-11-28T21:46:51.029Z,81.51
2022-11-28T21:49:17.990Z,83.28
2022-11-28T21:51:45.188Z,83.59
2022-11-28T21:54:12.746Z,83.49
2022-11-28T21:56:40.113Z,83.10
2022-11-28T21:59:07.480Z,83.64
2022-11-28T22:01:34.576Z,82.53
2022-11-28T22:04:06.801Z,82.42
2022-11-28T22:06:39.034Z,83.31
2022-11-28T22:09:09.425Z,82.97
2022-11-28T22:11:39.746Z,82.74
2022-11-28T22:17:02.550Z,83.21
2022-11-28T22:19:31.970Z,82.11
2022-11-28T22:22:15.309Z,82.84
2022-11-28T22:24:45.730Z,82.96
2022-11-28T22:27:15.907Z,82.37
2022-11-28T22:29:43.151Z,82.62
2022-11-28T22:32:10.349Z,83.26
2022-11-28T22:34:40.222Z,83.55
2022-11-28T22:37:07.605Z,83.92
2022-11-28T22:39:34.338Z,83.10
2022-11-28T22:42:01.412Z,83.08
2022-11-28T22:44:28.564Z,82.45
2022-11-28T22:46:55.374Z,82.69
2022-11-28T22:49:22.645Z,83.26
2022-11-28T22:51:50.045Z,82.77
2022-11-28T22:54:17.537Z,82.97
2022-11-28T22:56:44.193Z,83.40
2022-11-28T22:59:16.592Z,82.68
2022-11-28T23:01:43.887Z,83.30
2022-11-28T23:04:11.288Z,83.07
2022-11-28T23:06:38.082Z,83.02
2022-11-28T23:09:07.611Z,83.67
2022-11-28T23:11:38.138Z,82.77
2022-11-28T23:14:05.463Z,83.35
2022-11-28T23:16:36.004Z,83.11
2022-11-28T23:19:06.590Z,82.51
2022-11-28T23:21:36.712Z,83.24
2022-11-28T23:24:06.942Z,84.11
2022-11-28T23:26:34.447Z,84.06
2022-11-28T23:29:08.298Z,84.14
2022-11-28T23:31:39.783Z,84.06
2022-11-28T23:34:16.334Z,84.24
2022-11-28T23:36:46.491Z,82.87
2022-11-28T23:39:21.607Z,83.40
2022-11-28T23:41:51.438Z,83.10
2022-11-28T23:44:19.845Z,83.59
2022-11-28T23:46:51.627Z,83.51
2022-11-28T23:49:21.105Z,83.79
2022-11-28T23:51:50.242Z,83.51
2022-11-28T23:54:22.295Z,83.60
2022-11-28T23:56:58.740Z,83.67
2022-11-28T23:59:25.478Z,83.64
